METAR AND TAF INFORMATION
METAR FOR ENTO
ADDS - METARS form results

(0401 UTC 28 February 2021)
Data provider http://aviationweather.gov/metar/data/
 
METAR text: ENTO 280350Z AUTO 29007KT 260V320 9999 NCD 06/M01 Q1030
Conditions at: ENTO (TORP (CIV/NOR-AF, NO) observed 0350 UTC 28 February 2021
Temperature: 6.0°C (43°F)
Dewpoint: -1.0°C (30°F) [RH = 61%]
Pressure (altimeter): 30.41 inches Hg (1030.0 mb)
Winds: from the WNW (290 degrees) at 8 MPH (7 knots; 3.6 m/s)
Visibility: 6 or more miles (10+ km)
Ceiling: at least 12,000 feet AGL
Clouds: sky clear below 12,000 feet AGL
Weather: no significant weather observed at this time

METAR text: ENTO 280320Z AUTO 29010KT 9999 NCD 06/M01 Q1030
Conditions at: ENTO (TORP (CIV/NOR-AF, NO) observed 0320 UTC 28 February 2021
Temperature: 6.0°C (43°F)
Dewpoint: -1.0°C (30°F) [RH = 61%]
Pressure (altimeter): 30.41 inches Hg (1030.0 mb)
Winds: from the WNW (290 degrees) at 12 MPH (10 knots; 5.1 m/s)
Visibility: 6 or more miles (10+ km)
Ceiling: at least 12,000 feet AGL
Clouds: sky clear below 12,000 feet AGL
Weather: no significant weather observed at this time

Forecast for: ENTO (TORP (CIV/NOR-AF, NO)
Text: TAF ENTO 2800/2824 25003KT CAVOK
Forecast period: 0000 UTC 28 February 2021 to 0000 UTC 01 March 2021
Forecast type: FROM: standard forecast or significant change
Winds: from the WSW (250 degrees) at 3 MPH (3 knots; 1.5 m/s)
Visibility: 6 or more miles (10+ km)
Ceiling: unknown
Clouds: missing
Weather: NSW  (no significant weather)

 AIRPORT MAP

 RUNWAY INFORMATION
Runway 18 Runway length 9675 ft Runway width 148 ft
Runway elevation 282 ft Runway displaced threshold 1231 ft Runway heading 179
Runway 36 Runway length 9675 ft Runway width 148 ft
Runway elevation 255 ft Runway displaced threshold 1231 ft Runway heading 359

 AIRPORT FREQUENCIES
Type ATIS Name ATIS Frequency 119.075 MHZ
Type GND Name GND Frequency 126.175 MHZ
Type TCA Name FARRIS TCA Frequency 134.05 MHZ
Type TWR Name TWR Frequency 118.65 MHZ

 AIRPORT NEAR NAVIGATION AIDS
Type VOR-DME Name Torp Frequency 113850 KHZ



Powered by Virtual Airlines Manager [v2.6.2]